sensor_id;sensor_type;location;lat;lon;timestamp;pressure;altitude;pressure_sealevel;temperature
12430;BMP280;6279;42.192;24.326;2023-02-01T00:00:15;99301.81;;;4.33
12430;BMP280;6279;42.192;24.326;2023-02-01T00:02:40;99301.00;;;4.32
12430;BMP280;6279;42.192;24.326;2023-02-01T00:05:08;99302.91;;;4.09
12430;BMP280;6279;42.192;24.326;2023-02-01T00:07:34;99307.13;;;4.10
12430;BMP280;6279;42.192;24.326;2023-02-01T00:10:00;99306.91;;;3.91
12430;BMP280;6279;42.192;24.326;2023-02-01T00:12:25;99312.31;;;3.88
12430;BMP280;6279;42.192;24.326;2023-02-01T00:14:51;99317.22;;;3.80
12430;BMP280;6279;42.192;24.326;2023-02-01T00:17:16;99309.16;;;3.85
12430;BMP280;6279;42.192;24.326;2023-02-01T00:19:41;99317.09;;;3.92
12430;BMP280;6279;42.192;24.326;2023-02-01T00:22:07;99316.63;;;3.98
12430;BMP280;6279;42.192;24.326;2023-02-01T00:24:32;99311.94;;;3.92
12430;BMP280;6279;42.192;24.326;2023-02-01T00:26:57;99323.91;;;3.93
12430;BMP280;6279;42.192;24.326;2023-02-01T00:29:23;99323.16;;;4.02
12430;BMP280;6279;42.192;24.326;2023-02-01T00:31:50;99320.09;;;4.08
12430;BMP280;6279;42.192;24.326;2023-02-01T00:34:16;99317.28;;;4.11
12430;BMP280;6279;42.192;24.326;2023-02-01T00:36:42;99325.94;;;4.10
12430;BMP280;6279;42.192;24.326;2023-02-01T00:39:09;99319.41;;;4.06
12430;BMP280;6279;42.192;24.326;2023-02-01T00:41:34;99321.72;;;4.09
12430;BMP280;6279;42.192;24.326;2023-02-01T00:44:00;99323.84;;;4.04
12430;BMP280;6279;42.192;24.326;2023-02-01T00:46:26;99316.03;;;4.06
12430;BMP280;6279;42.192;24.326;2023-02-01T00:48:52;99317.09;;;3.92
12430;BMP280;6279;42.192;24.326;2023-02-01T00:51:23;99327.16;;;3.85
12430;BMP280;6279;42.192;24.326;2023-02-01T00:53:49;99315.59;;;3.69
12430;BMP280;6279;42.192;24.326;2023-02-01T00:56:15;99315.38;;;3.61
12430;BMP280;6279;42.192;24.326;2023-02-01T00:58:40;99309.16;;;3.52
12430;BMP280;6279;42.192;24.326;2023-02-01T01:01:12;99310.81;;;3.53
12430;BMP280;6279;42.192;24.326;2023-02-01T01:03:39;99302.50;;;3.39
12430;BMP280;6279;42.192;24.326;2023-02-01T01:06:13;99305.31;;;3.36
12430;BMP280;6279;42.192;24.326;2023-02-01T01:08:40;99296.91;;;3.24
12430;BMP280;6279;42.192;24.326;2023-02-01T01:11:11;99301.44;;;3.20
12430;BMP280;6279;42.192;24.326;2023-02-01T01:13:37;99298.84;;;3.20
12430;BMP280;6279;42.192;24.326;2023-02-01T01:16:07;99304.00;;;3.20
12430;BMP280;6279;42.192;24.326;2023-02-01T01:18:34;99304.00;;;3.20
12430;BMP280;6279;42.192;24.326;2023-02-01T01:21:00;99308.69;;;3.26
12430;BMP280;6279;42.192;24.326;2023-02-01T01:23:25;99308.31;;;3.20
12430;BMP280;6279;42.192;24.326;2023-02-01T01:25:51;99313.09;;;3.13
12430;BMP280;6279;42.192;24.326;2023-02-01T01:28:17;99309.97;;;3.10
12430;BMP280;6279;42.192;24.326;2023-02-01T01:30:42;99309.03;;;3.11
12430;BMP280;6279;42.192;24.326;2023-02-01T01:33:08;99308.19;;;3.10
12430;BMP280;6279;42.192;24.326;2023-02-01T01:35:33;99310.50;;;3.03
12430;BMP280;6279;42.192;24.326;2023-02-01T01:38:00;99312.59;;;2.98
12430;BMP280;6279;42.192;24.326;2023-02-01T01:40:27;99304.31;;;2.94
12430;BMP280;6279;42.192;24.326;2023-02-01T01:42:53;99302.81;;;3.03
12430;BMP280;6279;42.192;24.326;2023-02-01T01:47:55;99294.38;;;2.90
12430;BMP280;6279;42.192;24.326;2023-02-01T01:50:29;99301.16;;;2.91
12430;BMP280;6279;42.192;24.326;2023-02-01T01:52:57;99298.59;;;2.91
12430;BMP280;6279;42.192;24.326;2023-02-01T01:55:25;99296.25;;;2.99
12430;BMP280;6279;42.192;24.326;2023-02-01T01:57:59;99293.34;;;3.03
12430;BMP280;6279;42.192;24.326;2023-02-01T02:00:26;99289.13;;;3.02
12430;BMP280;6279;42.192;24.326;2023-02-01T02:03:19;99285.19;;;3.09
12430;BMP280;6279;42.192;24.326;2023-02-01T02:05:48;99284.84;;;3.13
12430;BMP280;6279;42.192;24.326;2023-02-01T02:08:14;99292.44;;;3.15
12430;BMP280;6279;42.192;24.326;2023-02-01T02:10:40;99293.00;;;3.18
12430;BMP280;6279;42.192;24.326;2023-02-01T02:13:24;99280.88;;;3.20
12430;BMP280;6279;42.192;24.326;2023-02-01T02:16:32;99290.34;;;3.20
12430;BMP280;6279;42.192;24.326;2023-02-01T02:28:10;99307.41;;;3.64
12430;BMP280;6279;42.192;24.326;2023-02-01T02:36:27;99316.19;;;3.83
12430;BMP280;6279;42.192;24.326;2023-02-01T02:39:21;99317.22;;;3.80
12430;BMP280;6279;42.192;24.326;2023-02-01T02:48:19;99320.16;;;3.97
12430;BMP280;6279;42.192;24.326;2023-02-01T02:50:51;99322.47;;;4.00
12430;BMP280;6279;42.192;24.326;2023-02-01T02:56:25;99319.47;;;4.26
12430;BMP280;6279;42.192;24.326;2023-02-01T02:59:12;99309.72;;;4.40
12430;BMP280;6279;42.192;24.326;2023-02-01T03:01:57;99320.59;;;4.44
12430;BMP280;6279;42.192;24.326;2023-02-01T03:04:41;99311.84;;;4.36
12430;BMP280;6279;42.192;24.326;2023-02-01T03:10:18;99310.53;;;3.89
12430;BMP280;6279;42.192;24.326;2023-02-01T03:12:49;99312.75;;;3.93
12430;BMP280;6279;42.192;24.326;2023-02-01T03:15:26;99307.03;;;3.90
12430;BMP280;6279;42.192;24.326;2023-02-01T03:17:55;99311.59;;;3.86
12430;BMP280;6279;42.192;24.326;2023-02-01T03:20:22;99317.59;;;3.76
12430;BMP280;6279;42.192;24.326;2023-02-01T03:22:50;99316.66;;;3.66
12430;BMP280;6279;42.192;24.326;2023-02-01T03:25:21;99315.50;;;3.59
12430;BMP280;6279;42.192;24.326;2023-02-01T03:27:52;99308.00;;;3.46
12430;BMP280;6279;42.192;24.326;2023-02-01T03:30:27;99311.50;;;3.45
12430;BMP280;6279;42.192;24.326;2023-02-01T03:33:00;99307.06;;;3.47
12430;BMP280;6279;42.192;24.326;2023-02-01T03:35:39;99311.72;;;3.31
12430;BMP280;6279;42.192;24.326;2023-02-01T03:40:35;99306.81;;;3.28
12430;BMP280;6279;42.192;24.326;2023-02-01T03:43:04;99315.25;;;3.30
12430;BMP280;6279;42.192;24.326;2023-02-01T03:45:38;99307.72;;;3.16
12430;BMP280;6279;42.192;24.326;2023-02-01T03:48:08;99312.38;;;3.01
12430;BMP280;6279;42.192;24.326;2023-02-01T03:50:36;99314.00;;;2.91
12430;BMP280;6279;42.192;24.326;2023-02-01T03:53:09;99320.78;;;2.92
12430;BMP280;6279;42.192;24.326;2023-02-01T03:55:36;99328.81;;;2.87
12430;BMP280;6279;42.192;24.326;2023-02-01T04:00:27;99331.00;;;2.81
12430;BMP280;6279;42.192;24.326;2023-02-01T04:02:53;99342.44;;;2.77
12430;BMP280;6279;42.192;24.326;2023-02-01T04:05:20;99333.66;;;2.69
12430;BMP280;6279;42.192;24.326;2023-02-01T04:07:45;99335.00;;;2.62
12430;BMP280;6279;42.192;24.326;2023-02-01T04:10:11;99328.84;;;2.64
12430;BMP280;6279;42.192;24.326;2023-02-01T04:12:38;99339.56;;;2.59
12430;BMP280;6279;42.192;24.326;2023-02-01T04:15:04;99341.44;;;2.67
12430;BMP280;6279;42.192;24.326;2023-02-01T04:17:30;99352.47;;;2.80
12430;BMP280;6279;42.192;24.326;2023-02-01T04:19:55;99341.44;;;2.90
12430;BMP280;6279;42.192;24.326;2023-02-01T04:22:21;99340.50;;;3.02
12430;BMP280;6279;42.192;24.326;2023-02-01T04:24:46;99355.16;;;3.12
12430;BMP280;6279;42.192;24.326;2023-02-01T04:27:12;99350.03;;;3.23
12430;BMP280;6279;42.192;24.326;2023-02-01T04:29:37;99344.13;;;3.44
12430;BMP280;6279;42.192;24.326;2023-02-01T04:32:04;99347.50;;;3.55
12430;BMP280;6279;42.192;24.326;2023-02-01T04:34:30;99351.25;;;3.62
12430;BMP280;6279;42.192;24.326;2023-02-01T04:36:55;99346.09;;;3.73
12430;BMP280;6279;42.192;24.326;2023-02-01T04:39:20;99345.66;;;3.79
12430;BMP280;6279;42.192;24.326;2023-02-01T04:41:46;99337.81;;;3.80
12430;BMP280;6279;42.192;24.326;2023-02-01T04:44:16;99343.53;;;3.84
12430;BMP280;6279;42.192;24.326;2023-02-01T04:46:42;99347.50;;;3.88
12430;BMP280;6279;42.192;24.326;2023-02-01T04:49:09;99350.44;;;3.94
12430;BMP280;6279;42.192;24.326;2023-02-01T04:51:35;99344.00;;;3.99
12430;BMP280;6279;42.192;24.326;2023-02-01T04:54:00;99341.19;;;4.02
12430;BMP280;6279;42.192;24.326;2023-02-01T04:56:26;99341.88;;;4.04
12430;BMP280;6279;42.192;24.326;2023-02-01T04:58:51;99352.53;;;4.00
12430;BMP280;6279;42.192;24.326;2023-02-01T05:01:16;99354.84;;;4.03
12430;BMP280;6279;42.192;24.326;2023-02-01T05:03:42;99358.94;;;4.05
12430;BMP280;6279;42.192;24.326;2023-02-01T05:06:07;99368.19;;;4.08
12430;BMP280;6279;42.192;24.326;2023-02-01T05:08:33;99375.78;;;4.09
12430;BMP280;6279;42.192;24.326;2023-02-01T05:10:59;99371.56;;;4.08
12430;BMP280;6279;42.192;24.326;2023-02-01T05:13:27;99372.75;;;4.04
12430;BMP280;6279;42.192;24.326;2023-02-01T05:16:11;99367.72;;;4.14
12430;BMP280;6279;42.192;24.326;2023-02-01T05:18:36;99352.41;;;4.12
12430;BMP280;6279;42.192;24.326;2023-02-01T05:21:02;99367.84;;;4.01
12430;BMP280;6279;42.192;24.326;2023-02-01T05:23:27;99361.75;;;4.02
12430;BMP280;6279;42.192;24.326;2023-02-01T05:25:58;99359.88;;;4.04
12430;BMP280;6279;42.192;24.326;2023-02-01T05:28:24;99355.78;;;4.13
12430;BMP280;6279;42.192;24.326;2023-02-01T05:30:49;99349.47;;;4.16
12430;BMP280;6279;42.192;24.326;2023-02-01T05:33:15;99355.56;;;4.15
12430;BMP280;6279;42.192;24.326;2023-02-01T05:35:40;99357.56;;;4.12
12430;BMP280;6279;42.192;24.326;2023-02-01T05:38:06;99360.34;;;4.20
12430;BMP280;6279;42.192;24.326;2023-02-01T05:40:31;99357.75;;;4.20
12430;BMP280;6279;42.192;24.326;2023-02-01T05:42:56;99348.59;;;4.27
12430;BMP280;6279;42.192;24.326;2023-02-01T05:45:22;99356.81;;;4.32
12430;BMP280;6279;42.192;24.326;2023-02-01T05:47:47;99362.59;;;4.44
12430;BMP280;6279;42.192;24.326;2023-02-01T05:50:13;99372.09;;;4.44
12430;BMP280;6279;42.192;24.326;2023-02-01T05:52:38;99369.63;;;4.42
12430;BMP280;6279;42.192;24.326;2023-02-01T05:55:04;99365.19;;;4.44
12430;BMP280;6279;42.192;24.326;2023-02-01T05:57:29;99363.41;;;4.56
12430;BMP280;6279;42.192;24.326;2023-02-01T05:59:55;99368.19;;;4.60
12430;BMP280;6279;42.192;24.326;2023-02-01T06:02:20;99371.06;;;4.77
12430;BMP280;6279;42.192;24.326;2023-02-01T06:04:46;99364.84;;;4.80
12430;BMP280;6279;42.192;24.326;2023-02-01T06:07:12;99370.25;;;4.77
12430;BMP280;6279;42.192;24.326;2023-02-01T06:09:37;99376.78;;;4.80
12430;BMP280;6279;42.192;24.326;2023-02-01T06:12:03;99364.00;;;4.79
12430;BMP280;6279;42.192;24.326;2023-02-01T06:14:29;99376.31;;;4.86
12430;BMP280;6279;42.192;24.326;2023-02-01T06:16:55;99369.44;;;4.96
12430;BMP280;6279;42.192;24.326;2023-02-01T06:19:21;99372.72;;;4.98
12430;BMP280;6279;42.192;24.326;2023-02-01T06:21:46;99371.84;;;5.08
12430;BMP280;6279;42.192;24.326;2023-02-01T06:24:12;99373.75;;;5.06
12430;BMP280;6279;42.192;24.326;2023-02-01T06:26:38;99371.22;;;5.16
12430;BMP280;6279;42.192;24.326;2023-02-01T06:29:05;99368.22;;;5.11
12430;BMP280;6279;42.192;24.326;2023-02-01T06:31:31;99363.75;;;5.13
12430;BMP280;6279;42.192;24.326;2023-02-01T06:33:57;99367.53;;;5.29
12430;BMP280;6279;42.192;24.326;2023-02-01T06:36:22;99357.78;;;5.32
12430;BMP280;6279;42.192;24.326;2023-02-01T06:38:48;99370.66;;;5.32
12430;BMP280;6279;42.192;24.326;2023-02-01T06:41:13;99375.81;;;5.32
12430;BMP280;6279;42.192;24.326;2023-02-01T06:43:39;99377.78;;;5.40
12430;BMP280;6279;42.192;24.326;2023-02-01T06:46:07;99379.47;;;5.30
12430;BMP280;6279;42.192;24.326;2023-02-01T06:48:33;99376.28;;;5.37
12430;BMP280;6279;42.192;24.326;2023-02-01T06:50:59;99381.22;;;5.29
12430;BMP280;6279;42.192;24.326;2023-02-01T06:53:25;99378.84;;;5.37
12430;BMP280;6279;42.192;24.326;2023-02-01T06:55:55;99376.84;;;5.41
12430;BMP280;6279;42.192;24.326;2023-02-01T06:58:21;99376.84;;;5.41
12430;BMP280;6279;42.192;24.326;2023-02-01T07:00:47;99383.88;;;5.59
12430;BMP280;6279;42.192;24.326;2023-02-01T07:03:13;99394.19;;;5.59
12430;BMP280;6279;42.192;24.326;2023-02-01T07:05:39;99396.63;;;5.60
12430;BMP280;6279;42.192;24.326;2023-02-01T07:08:04;99394.31;;;5.57
12430;BMP280;6279;42.192;24.326;2023-02-01T07:10:29;99392.94;;;5.73
12430;BMP280;6279;42.192;24.326;2023-02-01T07:12:58;99386.19;;;5.82
12430;BMP280;6279;42.192;24.326;2023-02-01T07:15:23;99393.53;;;5.86
12430;BMP280;6279;42.192;24.326;2023-02-01T07:17:49;99401.75;;;5.91
12430;BMP280;6279;42.192;24.326;2023-02-01T07:20:15;99397.16;;;6.04
12430;BMP280;6279;42.192;24.326;2023-02-01T07:22:40;99396.47;;;6.02
12430;BMP280;6279;42.192;24.326;2023-02-01T07:25:07;99397.19;;;6.13
12430;BMP280;6279;42.192;24.326;2023-02-01T07:27:36;99386.38;;;6.28
12430;BMP280;6279;42.192;24.326;2023-02-01T07:30:02;99393.06;;;6.31
12430;BMP280;6279;42.192;24.326;2023-02-01T07:32:28;99389.66;;;6.39
12430;BMP280;6279;42.192;24.326;2023-02-01T07:34:54;99392.81;;;6.61
12430;BMP280;6279;42.192;24.326;2023-02-01T07:37:20;99383.88;;;6.65
12430;BMP280;6279;42.192;24.326;2023-02-01T07:39:45;99384.97;;;6.72
12430;BMP280;6279;42.192;24.326;2023-02-01T07:42:10;99390.41;;;6.78
12430;BMP280;6279;42.192;24.326;2023-02-01T07:44:36;99397.06;;;6.72
12430;BMP280;6279;42.192;24.326;2023-02-01T07:47:01;99397.09;;;6.81
12430;BMP280;6279;42.192;24.326;2023-02-01T07:49:27;99399.81;;;6.89
12430;BMP280;6279;42.192;24.326;2023-02-01T07:51:52;99393.00;;;6.88
12430;BMP280;6279;42.192;24.326;2023-02-01T07:54:18;99400.63;;;6.89
12430;BMP280;6279;42.192;24.326;2023-02-01T07:56:43;99390.84;;;6.93
12430;BMP280;6279;42.192;24.326;2023-02-01T07:59:08;99394.78;;;6.87
12430;BMP280;6279;42.192;24.326;2023-02-01T08:01:34;99392.34;;;6.86
12430;BMP280;6279;42.192;24.326;2023-02-01T08:04:01;99383.09;;;7.02
12430;BMP280;6279;42.192;24.326;2023-02-01T08:06:29;99387.88;;;7.16
12430;BMP280;6279;42.192;24.326;2023-02-01T08:08:57;99391.09;;;7.27
12430;BMP280;6279;42.192;24.326;2023-02-01T08:11:24;99393.00;;;7.25
12430;BMP280;6279;42.192;24.326;2023-02-01T08:13:50;99385.38;;;7.42
12430;BMP280;6279;42.192;24.326;2023-02-01T08:16:17;99391.06;;;7.45
12430;BMP280;6279;42.192;24.326;2023-02-01T08:18:43;99382.88;;;7.59
12430;BMP280;6279;42.192;24.326;2023-02-01T08:21:12;99396.72;;;7.77
12430;BMP280;6279;42.192;24.326;2023-02-01T08:23:38;99397.66;;;7.85
12430;BMP280;6279;42.192;24.326;2023-02-01T08:26:12;99399.13;;;7.97
12430;BMP280;6279;42.192;24.326;2023-02-01T08:28:39;99397.78;;;7.84
12430;BMP280;6279;42.192;24.326;2023-02-01T08:31:11;99389.88;;;7.85
12430;BMP280;6279;42.192;24.326;2023-02-01T08:33:36;99397.75;;;8.02
12430;BMP280;6279;42.192;24.326;2023-02-01T08:36:07;99411.63;;;8.01
12430;BMP280;6279;42.192;24.326;2023-02-01T08:38:35;99403.88;;;8.01
12430;BMP280;6279;42.192;24.326;2023-02-01T08:41:08;99394.47;;;8.00
12430;BMP280;6279;42.192;24.326;2023-02-01T08:43:34;99405.78;;;7.99
12430;BMP280;6279;42.192;24.326;2023-02-01T08:45:59;99399.00;;;8.08
12430;BMP280;6279;42.192;24.326;2023-02-01T08:48:24;99402.91;;;8.11
12430;BMP280;6279;42.192;24.326;2023-02-01T08:50:50;99401.53;;;8.17
12430;BMP280;6279;42.192;24.326;2023-02-01T08:53:17;99380.78;;;8.26
12430;BMP280;6279;42.192;24.326;2023-02-01T08:55:45;99381.19;;;8.22
12430;BMP280;6279;42.192;24.326;2023-02-01T08:58:11;99383.38;;;8.26
12430;BMP280;6279;42.192;24.326;2023-02-01T09:00:36;99385.28;;;8.24
12430;BMP280;6279;42.192;24.326;2023-02-01T09:03:02;99381.63;;;8.17
12430;BMP280;6279;42.192;24.326;2023-02-01T09:05:27;99380.03;;;8.07
12430;BMP280;6279;42.192;24.326;2023-02-01T09:07:53;99380.31;;;8.04
12430;BMP280;6279;42.192;24.326;2023-02-01T09:10:19;99376.09;;;8.30
12430;BMP280;6279;42.192;24.326;2023-02-01T09:12:44;99366.59;;;11.20
12430;BMP280;6279;42.192;24.326;2023-02-01T09:15:09;99368.38;;;13.61
12430;BMP280;6279;42.192;24.326;2023-02-01T09:17:35;99360.75;;;15.08
12430;BMP280;6279;42.192;24.326;2023-02-01T09:20:03;99351.78;;;17.22
12430;BMP280;6279;42.192;24.326;2023-02-01T09:22:29;99355.84;;;19.12
12430;BMP280;6279;42.192;24.326;2023-02-01T09:24:54;99349.91;;;20.19
12430;BMP280;6279;42.192;24.326;2023-02-01T09:27:20;99352.69;;;20.94
12430;BMP280;6279;42.192;24.326;2023-02-01T09:29:48;99364.16;;;20.71
12430;BMP280;6279;42.192;24.326;2023-02-01T09:32:21;99352.56;;;21.18
12430;BMP280;6279;42.192;24.326;2023-02-01T09:34:47;99356.19;;;21.98
12430;BMP280;6279;42.192;24.326;2023-02-01T09:37:12;99347.63;;;20.93
12430;BMP280;6279;42.192;24.326;2023-02-01T09:39:38;99337.03;;;21.62
12430;BMP280;6279;42.192;24.326;2023-02-01T09:42:25;99335.28;;;23.07
12430;BMP280;6279;42.192;24.326;2023-02-01T09:45:04;99329.94;;;22.07
12430;BMP280;6279;42.192;24.326;2023-02-01T09:47:35;99336.56;;;21.53
12430;BMP280;6279;42.192;24.326;2023-02-01T09:50:10;99338.94;;;22.06
12430;BMP280;6279;42.192;24.326;2023-02-01T09:55:45;99351.34;;;17.12
12430;BMP280;6279;42.192;24.326;2023-02-01T09:58:32;99350.03;;;15.50
12430;BMP280;6279;42.192;24.326;2023-02-01T10:00:59;99341.22;;;14.75
12430;BMP280;6279;42.192;24.326;2023-02-01T10:03:29;99338.94;;;16.29
12430;BMP280;6279;42.192;24.326;2023-02-01T10:26:22;99327.88;;;22.09
12430;BMP280;6279;42.192;24.326;2023-02-01T10:29:14;99327.38;;;22.35
12430;BMP280;6279;42.192;24.326;2023-02-01T10:31:41;99310.25;;;22.76
12430;BMP280;6279;42.192;24.326;2023-02-01T10:34:21;99325.31;;;22.14
12430;BMP280;6279;42.192;24.326;2023-02-01T10:36:55;99319.59;;;22.17
12430;BMP280;6279;42.192;24.326;2023-02-01T10:39:22;99323.25;;;21.94
12430;BMP280;6279;42.192;24.326;2023-02-01T10:41:48;99330.28;;;19.91
12430;BMP280;6279;42.192;24.326;2023-02-01T10:44:18;99315.16;;;18.59
12430;BMP280;6279;42.192;24.326;2023-02-01T10:46:44;99316.16;;;18.02
12430;BMP280;6279;42.192;24.326;2023-02-01T10:49:38;99319.84;;;17.25
12430;BMP280;6279;42.192;24.326;2023-02-01T10:54:38;99298.69;;;18.21
12430;BMP280;6279;42.192;24.326;2023-02-01T10:57:23;99288.81;;;19.26
12430;BMP280;6279;42.192;24.326;2023-02-01T10:59:53;99291.84;;;19.54
12430;BMP280;6279;42.192;24.326;2023-02-01T11:02:29;99293.78;;;19.16
12430;BMP280;6279;42.192;24.326;2023-02-01T11:05:12;99296.16;;;17.76
12430;BMP280;6279;42.192;24.326;2023-02-01T11:07:46;99282.00;;;17.71
12430;BMP280;6279;42.192;24.326;2023-02-01T11:10:37;99273.69;;;17.80
12430;BMP280;6279;42.192;24.326;2023-02-01T11:13:03;99257.16;;;18.29
12430;BMP280;6279;42.192;24.326;2023-02-01T11:15:29;99255.66;;;18.45
12430;BMP280;6279;42.192;24.326;2023-02-01T11:17:54;99248.88;;;18.62
12430;BMP280;6279;42.192;24.326;2023-02-01T11:20:39;99255.44;;;17.85
12430;BMP280;6279;42.192;24.326;2023-02-01T11:23:13;99250.69;;;17.18
12430;BMP280;6279;42.192;24.326;2023-02-01T11:25:48;99261.50;;;16.65
12430;BMP280;6279;42.192;24.326;2023-02-01T11:28:14;99254.09;;;16.22
12430;BMP280;6279;42.192;24.326;2023-02-01T11:30:42;99253.75;;;15.98
12430;BMP280;6279;42.192;24.326;2023-02-01T11:33:15;99242.75;;;15.76
12430;BMP280;6279;42.192;24.326;2023-02-01T11:35:41;99245.69;;;15.60
12430;BMP280;6279;42.192;24.326;2023-02-01T11:38:26;99248.75;;;14.95
12430;BMP280;6279;42.192;24.326;2023-02-01T11:40:52;99243.28;;;14.49
12430;BMP280;6279;42.192;24.326;2023-02-01T11:43:27;99254.56;;;13.87
12430;BMP280;6279;42.192;24.326;2023-02-01T11:46:03;99238.56;;;14.25
12430;BMP280;6279;42.192;24.326;2023-02-01T11:48:33;99237.91;;;14.98
12430;BMP280;6279;42.192;24.326;2023-02-01T11:51:14;99242.25;;;15.06
12430;BMP280;6279;42.192;24.326;2023-02-01T11:56:31;99229.25;;;14.36
12430;BMP280;6279;42.192;24.326;2023-02-01T12:06:50;99236.59;;;13.27
12430;BMP280;6279;42.192;24.326;2023-02-01T12:15:36;99202.13;;;14.23
12430;BMP280;6279;42.192;24.326;2023-02-01T12:18:08;99203.28;;;14.55
12430;BMP280;6279;42.192;24.326;2023-02-01T12:38:53;99208.53;;;13.43
12430;BMP280;6279;42.192;24.326;2023-02-01T12:42:01;99235.41;;;13.15
12430;BMP280;6279;42.192;24.326;2023-02-01T12:45:14;99224.94;;;13.01
12430;BMP280;6279;42.192;24.326;2023-02-01T12:52:49;99230.00;;;12.59
12430;BMP280;6279;42.192;24.326;2023-02-01T12:55:30;99219.44;;;12.96
12430;BMP280;6279;42.192;24.326;2023-02-01T12:58:12;99246.25;;;12.69
12430;BMP280;6279;42.192;24.326;2023-02-01T13:00:40;99228.09;;;12.53
12430;BMP280;6279;42.192;24.326;2023-02-01T13:05:58;99226.88;;;11.74
12430;BMP280;6279;42.192;24.326;2023-02-01T13:08:35;99228.66;;;11.36
12430;BMP280;6279;42.192;24.326;2023-02-01T13:11:36;99214.94;;;11.49
12430;BMP280;6279;42.192;24.326;2023-02-01T13:14:10;99216.09;;;11.39
12430;BMP280;6279;42.192;24.326;2023-02-01T13:16:43;99220.31;;;11.48
12430;BMP280;6279;42.192;24.326;2023-02-01T13:19:20;99216.09;;;11.47
12430;BMP280;6279;42.192;24.326;2023-02-01T13:21:57;99224.88;;;11.30
12430;BMP280;6279;42.192;24.326;2023-02-01T13:24:43;99230.72;;;11.24
12430;BMP280;6279;42.192;24.326;2023-02-01T13:27:14;99224.06;;;11.22
12430;BMP280;6279;42.192;24.326;2023-02-01T13:30:10;99230.94;;;11.15
12430;BMP280;6279;42.192;24.326;2023-02-01T13:43:19;99229.00;;;11.01
12430;BMP280;6279;42.192;24.326;2023-02-01T13:45:53;99231.25;;;11.04
12430;BMP280;6279;42.192;24.326;2023-02-01T13:48:45;99228.34;;;10.99
12430;BMP280;6279;42.192;24.326;2023-02-01T13:51:12;99231.78;;;10.92
12430;BMP280;6279;42.192;24.326;2023-02-01T13:53:45;99231.75;;;11.00
12430;BMP280;6279;42.192;24.326;2023-02-01T13:56:17;99223.97;;;10.92
12430;BMP280;6279;42.192;24.326;2023-02-01T13:58:45;99223.47;;;10.81
12430;BMP280;6279;42.192;24.326;2023-02-01T14:03:56;99229.81;;;10.63
12430;BMP280;6279;42.192;24.326;2023-02-01T14:09:34;99220.06;;;10.57
12430;BMP280;6279;42.192;24.326;2023-02-01T14:15:24;99216.28;;;10.36
12430;BMP280;6279;42.192;24.326;2023-02-01T14:17:50;99207.19;;;10.32
12430;BMP280;6279;42.192;24.326;2023-02-01T14:23:03;99202.94;;;10.15
12430;BMP280;6279;42.192;24.326;2023-02-01T14:25:33;99206.19;;;10.09
12430;BMP280;6279;42.192;24.326;2023-02-01T14:27:58;99203.09;;;10.06
12430;BMP280;6279;42.192;24.326;2023-02-01T14:30:24;99200.78;;;9.95
12430;BMP280;6279;42.192;24.326;2023-02-01T14:32:49;99196.72;;;10.01
12430;BMP280;6279;42.192;24.326;2023-02-01T14:35:19;99195.75;;;9.94
12430;BMP280;6279;42.192;24.326;2023-02-01T14:37:46;99197.03;;;9.90
12430;BMP280;6279;42.192;24.326;2023-02-01T14:42:51;99193.72;;;9.80
12430;BMP280;6279;42.192;24.326;2023-02-01T14:47:50;99206.34;;;9.67
12430;BMP280;6279;42.192;24.326;2023-02-01T15:00:52;99214.47;;;9.32
12430;BMP280;6279;42.192;24.326;2023-02-01T15:06:22;99211.41;;;9.36
12430;BMP280;6279;42.192;24.326;2023-02-01T15:08:48;99212.41;;;9.43
12430;BMP280;6279;42.192;24.326;2023-02-01T15:11:15;99220.50;;;9.40
12430;BMP280;6279;42.192;24.326;2023-02-01T15:13:53;99213.44;;;9.50
12430;BMP280;6279;42.192;24.326;2023-02-01T15:16:22;99212.63;;;9.49
12430;BMP280;6279;42.192;24.326;2023-02-01T15:18:48;99212.13;;;9.54
12430;BMP280;6279;42.192;24.326;2023-02-01T15:21:20;99207.59;;;9.56
12430;BMP280;6279;42.192;24.326;2023-02-01T15:23:45;99210.19;;;9.48
12430;BMP280;6279;42.192;24.326;2023-02-01T15:26:25;99213.34;;;9.34
12430;BMP280;6279;42.192;24.326;2023-02-01T15:28:51;99209.28;;;9.32
12430;BMP280;6279;42.192;24.326;2023-02-01T15:31:31;99207.78;;;9.29
12430;BMP280;6279;42.192;24.326;2023-02-01T15:33:57;99218.09;;;9.14
12430;BMP280;6279;42.192;24.326;2023-02-01T15:36:23;99220.56;;;8.98
12430;BMP280;6279;42.192;24.326;2023-02-01T15:41:49;99213.66;;;8.81
12430;BMP280;6279;42.192;24.326;2023-02-01T15:46:45;99228.44;;;8.47
12430;BMP280;6279;42.192;24.326;2023-02-01T15:49:19;99229.31;;;8.38
12430;BMP280;6279;42.192;24.326;2023-02-01T15:51:47;99241.75;;;8.34
12430;BMP280;6279;42.192;24.326;2023-02-01T15:54:17;99239.50;;;8.22
12430;BMP280;6279;42.192;24.326;2023-02-01T15:56:52;99239.81;;;8.19
12430;BMP280;6279;42.192;24.326;2023-02-01T15:59:24;99245.94;;;8.18
12430;BMP280;6279;42.192;24.326;2023-02-01T16:01:53;99252.59;;;8.04
12430;BMP280;6279;42.192;24.326;2023-02-01T16:04:21;99251.38;;;7.98
12430;BMP280;6279;42.192;24.326;2023-02-01T16:09:19;99251.75;;;7.77
12430;BMP280;6279;42.192;24.326;2023-02-01T16:11:55;99261.31;;;7.76
12430;BMP280;6279;42.192;24.326;2023-02-01T16:14:21;99255.59;;;7.73
12430;BMP280;6279;42.192;24.326;2023-02-01T16:16:47;99244.81;;;7.77
12430;BMP280;6279;42.192;24.326;2023-02-01T16:19:13;99243.31;;;7.75
12430;BMP280;6279;42.192;24.326;2023-02-01T16:21:38;99242.66;;;7.73
12430;BMP280;6279;42.192;24.326;2023-02-01T16:24:04;99243.34;;;7.65
12430;BMP280;6279;42.192;24.326;2023-02-01T18:41:26;99265.00;;;5.71
12430;BMP280;6279;42.192;24.326;2023-02-01T18:43:51;99262.78;;;5.67
12430;BMP280;6279;42.192;24.326;2023-02-01T18:46:17;99262.53;;;5.69
12430;BMP280;6279;42.192;24.326;2023-02-01T18:48:43;99263.03;;;5.64
12430;BMP280;6279;42.192;24.326;2023-02-01T18:51:10;99267.44;;;5.43
12430;BMP280;6279;42.192;24.326;2023-02-01T18:53:37;99262.09;;;5.35
12430;BMP280;6279;42.192;24.326;2023-02-01T18:56:03;99265.34;;;5.28
12430;BMP280;6279;42.192;24.326;2023-02-01T18:58:28;99256.97;;;5.15
12430;BMP280;6279;42.192;24.326;2023-02-01T19:00:55;99258.75;;;5.15
12430;BMP280;6279;42.192;24.326;2023-02-01T19:03:21;99263.47;;;5.10
12430;BMP280;6279;42.192;24.326;2023-02-01T19:05:53;99257.25;;;5.12
12430;BMP280;6279;42.192;24.326;2023-02-01T19:08:18;99261.59;;;5.12
12430;BMP280;6279;42.192;24.326;2023-02-01T19:10:43;99256.28;;;5.13
12430;BMP280;6279;42.192;24.326;2023-02-01T19:13:10;99262.00;;;5.17
12430;BMP280;6279;42.192;24.326;2023-02-01T19:15:40;99252.97;;;5.22
12430;BMP280;6279;42.192;24.326;2023-02-01T19:18:07;99257.13;;;5.14